createdAt,value
2019-01-04T05:14:41.107Z,49.58
2019-01-04T05:17:09.573Z,48.30
2019-01-04T05:19:36.708Z,47.90
2019-01-04T05:22:04.873Z,46.95
2019-01-04T05:24:32.014Z,46.52
2019-01-04T05:26:59.129Z,45.67
2019-01-04T18:33:04.592Z,41.96
2019-01-04T18:35:32.293Z,47.78
2019-01-04T18:37:59.959Z,52.99
2019-01-04T18:40:27.707Z,60.16
2019-01-04T18:42:55.994Z,63.95
2019-01-04T18:45:23.619Z,62.58
2019-01-04T18:47:51.392Z,64.91
2019-01-04T18:50:21.781Z,65.66
2019-01-04T18:52:49.613Z,68.29
2019-01-04T18:55:17.276Z,65.86
2019-01-04T18:57:45.261Z,66.50
2019-01-04T19:00:13.195Z,64.95
2019-01-04T19:02:41.771Z,67.24
2019-01-04T19:05:09.483Z,65.80
2019-01-04T19:07:37.077Z,65.58
2019-01-04T19:10:06.312Z,65.07
2019-01-04T19:12:33.766Z,65.14
2019-01-04T19:15:01.514Z,66.86
2019-01-04T19:17:29.228Z,64.80
2019-01-04T19:19:56.884Z,66.74
2019-01-04T19:22:24.995Z,67.90
2019-01-04T19:24:53.144Z,64.94
2019-01-04T19:27:20.948Z,65.88
2019-01-04T19:29:48.463Z,65.87
2019-01-04T19:32:16.840Z,67.53
2019-01-04T19:34:44.617Z,68.58
2019-01-04T19:37:12.249Z,66.94
2019-01-04T19:39:39.862Z,67.96
2019-01-04T19:42:07.742Z,66.34
2019-01-04T19:44:36.875Z,64.40
2019-01-04T19:47:04.743Z,62.82
2019-01-04T19:49:32.513Z,63.99
2019-01-04T19:52:00.550Z,64.05
2019-01-04T19:54:28.097Z,63.85
2019-01-04T19:56:55.901Z,62.73
2019-01-04T19:59:24.208Z,61.37
2019-01-04T20:01:51.757Z,61.37
2019-01-04T20:04:27.431Z,61.20
2019-01-04T20:07:54.047Z,64.58
2019-01-04T20:11:46.671Z,62.63
2019-01-04T20:15:29.882Z,62.80
2019-01-04T20:18:23.585Z,64.06
2019-01-04T20:21:09.868Z,67.49
2019-01-04T20:24:09.155Z,63.86
2019-01-04T20:27:14.245Z,63.25
2019-01-04T20:30:01.496Z,68.96
2019-01-04T20:33:01.005Z,63.02
2019-01-04T20:36:01.180Z,71.95
2019-01-04T20:38:46.979Z,66.58
2019-01-04T20:41:40.210Z,62.87
2019-01-04T20:44:39.747Z,63.75
2019-01-04T20:47:38.935Z,62.43
2019-01-04T20:50:28.849Z,66.20
2019-01-04T20:53:21.869Z,64.45
2019-01-04T20:56:07.835Z,63.90
2019-01-04T20:58:54.857Z,73.03
2019-01-04T21:01:50.926Z,70.74
2019-01-04T21:04:35.547Z,75.58
2019-01-04T21:07:22.525Z,76.78
2019-01-04T21:10:15.678Z,76.78
2019-01-04T21:13:01.743Z,66.09
2019-01-04T21:15:57.483Z,70.65
2019-01-04T21:18:48.568Z,71.14
2019-01-04T21:21:29.583Z,75.59
2019-01-04T21:24:15.610Z,70.90
2019-01-04T21:27:01.249Z,77.54
2019-01-04T21:29:46.892Z,75.42
2019-01-04T21:32:31.813Z,72.46
2019-01-04T21:35:17.782Z,74.22
2019-01-04T21:38:04.694Z,75.12
2019-01-04T21:41:00.170Z,74.30
2019-01-04T21:43:53.255Z,77.42
2019-01-04T21:46:55.179Z,76.71
2019-01-04T21:49:47.946Z,79.06
2019-01-04T21:52:40.808Z,77.96
2019-01-04T21:55:26.381Z,76.39
2019-01-04T21:58:16.061Z,76.69
2019-01-04T22:00:58.255Z,77.56
2019-01-04T22:03:44.083Z,74.90
2019-01-04T22:06:29.780Z,74.23
2019-01-04T22:09:25.833Z,74.70
2019-01-04T22:12:07.315Z,77.72
2019-01-04T22:14:52.603Z,78.93
2019-01-04T22:17:52.223Z,78.94
2019-01-04T22:20:37.788Z,77.78
2019-01-04T22:23:23.558Z,79.77
2019-01-04T22:26:16.287Z,78.63
2019-01-04T22:29:03.293Z,77.82
2019-01-04T22:32:00.580Z,76.45
2019-01-04T22:34:44.522Z,77.52
2019-01-04T22:37:31.659Z,75.21
2019-01-04T22:40:21.556Z,73.69
2019-01-04T22:43:11.553Z,73.85
2019-01-04T22:46:13.641Z,74.13
2019-01-04T22:49:12.656Z,76.24
2019-01-04T22:52:05.983Z,77.17
2019-01-04T22:54:52.980Z,77.24
2019-01-04T22:57:39.997Z,80.33
2019-01-04T23:00:43.716Z,75.88
2019-01-04T23:03:36.704Z,77.42
2019-01-04T23:06:22.384Z,74.16
2019-01-04T23:09:15.300Z,77.36
2019-01-04T23:12:00.784Z,78.63
2019-01-04T23:14:56.625Z,78.27
2019-01-04T23:17:47.182Z,74.28
2019-01-04T23:20:43.487Z,75.46
2019-01-04T23:23:22.535Z,76.41
2019-01-04T23:26:08.586Z,75.29
2019-01-04T23:28:58.276Z,76.24
2019-01-04T23:31:48.322Z,77.45
2019-01-04T23:34:44.091Z,73.90
2019-01-04T23:37:29.823Z,77.73
2019-01-04T23:40:15.471Z,75.44
2019-01-04T23:43:01.081Z,77.12
2019-01-04T23:46:01.649Z,73.83
2019-01-04T23:49:06.951Z,77.36
2019-01-04T23:51:46.852Z,76.77
2019-01-04T23:54:33.990Z,79.53
2019-01-04T23:57:33.386Z,79.21
